createdAt,value
2023-01-03T00:01:52.354Z,100946.00
2023-01-03T00:04:22.199Z,100944.00
2023-01-03T00:06:54.275Z,100951.00
2023-01-03T00:09:24.633Z,100939.00
2023-01-03T00:12:12.835Z,100945.00
2023-01-03T00:14:44.150Z,100939.00
2023-01-03T00:17:12.943Z,100946.00
2023-01-03T00:19:44.229Z,100951.00
2023-01-03T00:22:14.024Z,100953.00
2023-01-03T00:24:42.465Z,100951.00
2023-01-03T00:27:10.314Z,100950.00
2023-01-03T00:29:38.621Z,100952.00
2023-01-03T00:32:07.467Z,100951.00
2023-01-03T00:34:35.907Z,100953.00
2023-01-03T00:37:04.152Z,100962.00
2023-01-03T00:39:31.822Z,100965.00
2023-01-03T00:41:59.662Z,100965.00
2023-01-03T00:44:27.532Z,100972.00
2023-01-03T00:46:55.202Z,100980.00
2023-01-03T00:49:23.291Z,100984.00
2023-01-03T00:51:51.425Z,100988.00
2023-01-03T00:54:18.802Z,100995.00
2023-01-03T00:56:48.348Z,100984.00
2023-01-03T00:59:18.141Z,100996.00
2023-01-03T01:01:49.672Z,101002.00
2023-01-03T01:04:26.505Z,101010.00
2023-01-03T01:07:01.043Z,101014.00
2023-01-03T01:09:36.392Z,101016.00
2023-01-03T01:12:07.134Z,101020.00
2023-01-03T01:14:34.789Z,101019.00
2023-01-03T01:17:08.873Z,101011.00
2023-01-03T01:19:42.873Z,101017.00
2023-01-03T01:22:12.097Z,101025.00
2023-01-03T01:24:40.322Z,101028.00
2023-01-03T01:27:08.308Z,101024.00
2023-01-03T01:29:37.766Z,101031.00
2023-01-03T01:32:07.078Z,101035.00
2023-01-03T01:34:34.580Z,101052.00
2023-01-03T01:37:02.034Z,101045.00
2023-01-03T01:39:30.281Z,101054.00
2023-01-03T01:42:21.661Z,101056.00
2023-01-03T01:44:59.116Z,101059.00
2023-01-03T01:47:52.866Z,101065.00
2023-01-03T01:50:34.393Z,101069.00
2023-01-03T01:53:21.663Z,101078.00
2023-01-03T01:55:55.605Z,101071.00
2023-01-03T01:58:29.614Z,101074.00
2023-01-03T02:00:59.302Z,101072.00
2023-01-03T02:03:27.160Z,101070.00
2023-01-03T02:05:56.687Z,101074.00
2023-01-03T02:08:25.249Z,101074.00
2023-01-03T02:11:41.056Z,101083.00
2023-01-03T02:14:55.980Z,101081.00
2023-01-03T02:17:54.536Z,101073.00
2023-01-03T02:21:19.933Z,101068.00
2023-01-03T02:23:50.883Z,101078.00
2023-01-03T02:26:57.078Z,101083.00
2023-01-03T02:30:18.375Z,101078.00
2023-01-03T02:33:23.257Z,101089.00
2023-01-03T02:36:31.145Z,101095.00
2023-01-03T02:39:24.479Z,101095.00
2023-01-03T02:42:33.985Z,101091.00
2023-01-03T02:45:14.216Z,101103.00
2023-01-03T02:48:00.652Z,101101.00
2023-01-03T02:50:33.235Z,101114.00
2023-01-03T02:53:09.499Z,101109.00
2023-01-03T02:55:38.633Z,101107.00
2023-01-03T02:58:16.247Z,101113.00
2023-01-03T03:00:48.917Z,101110.00
2023-01-03T03:03:22.745Z,101115.00
2023-01-03T03:06:16.467Z,101113.00
2023-01-03T03:08:48.040Z,101113.00
2023-01-03T03:11:34.747Z,101118.00
2023-01-03T03:14:29.630Z,101118.00
2023-01-03T03:17:04.213Z,101124.00
2023-01-03T03:19:58.664Z,101128.00
2023-01-03T03:22:52.470Z,101124.00
2023-01-03T03:25:30.725Z,101125.00
2023-01-03T03:28:27.569Z,101129.00
2023-01-03T03:31:34.866Z,101135.00
2023-01-03T03:34:22.172Z,101130.00
2023-01-03T03:37:18.779Z,101130.00
2023-01-03T03:40:06.523Z,101134.00
2023-01-03T03:43:15.580Z,101139.00
2023-01-03T03:46:03.077Z,101135.00
2023-01-03T03:49:16.469Z,101140.00
2023-01-03T03:51:46.071Z,101142.00
2023-01-03T03:54:20.045Z,101134.00
2023-01-03T03:57:28.431Z,101128.00
2023-01-03T04:00:05.501Z,101138.00
2023-01-03T04:02:42.997Z,101135.00
2023-01-03T04:05:12.653Z,101138.00
2023-01-03T04:07:40.679Z,101145.00
2023-01-03T04:10:10.205Z,101154.00
2023-01-03T04:12:37.687Z,101144.00
2023-01-03T04:15:07.178Z,101149.00
2023-01-03T04:17:34.860Z,101154.00
2023-01-03T04:20:02.379Z,101160.00
2023-01-03T04:22:30.055Z,101164.00
2023-01-03T04:24:57.575Z,101163.00
2023-01-03T04:27:25.056Z,101171.00
2023-01-03T04:29:52.513Z,101167.00
2023-01-03T04:32:20.178Z,101168.00
2023-01-03T04:34:47.655Z,101168.00
2023-01-03T04:37:15.068Z,101170.00
2023-01-03T04:39:42.656Z,101176.00
2023-01-03T04:42:28.878Z,101180.00
2023-01-03T04:44:56.474Z,101171.00
2023-01-03T04:47:26.112Z,101174.00
2023-01-03T04:49:53.691Z,101178.00
2023-01-03T04:52:21.045Z,101180.00
2023-01-03T04:54:48.466Z,101180.00
2023-01-03T04:57:16.240Z,101181.00
2023-01-03T04:59:43.871Z,101177.00
2023-01-03T05:02:11.758Z,101186.00
2023-01-03T05:04:39.654Z,101189.00
2023-01-03T05:07:08.004Z,101191.00
2023-01-03T05:09:35.562Z,101183.00
2023-01-03T05:12:03.003Z,101189.00
2023-01-03T05:14:30.391Z,101190.00
2023-01-03T05:16:57.936Z,101192.00
2023-01-03T05:19:25.621Z,101190.00
2023-01-03T05:22:11.745Z,101191.00
2023-01-03T05:24:57.623Z,101196.00
2023-01-03T05:27:25.343Z,101202.00
2023-01-03T05:29:54.735Z,101200.00
2023-01-03T05:32:24.160Z,101200.00
2023-01-03T05:34:51.747Z,101198.00
2023-01-03T05:37:19.364Z,101199.00
2023-01-03T05:39:47.010Z,101199.00
2023-01-03T05:42:14.707Z,101210.00
2023-01-03T05:44:42.308Z,101206.00
2023-01-03T05:47:10.172Z,101210.00
2023-01-03T05:49:37.668Z,101208.00
2023-01-03T05:52:05.408Z,101200.00
2023-01-03T05:54:32.975Z,101202.00
2023-01-03T05:57:00.324Z,101201.00
2023-01-03T05:59:28.754Z,101205.00
2023-01-03T06:01:56.531Z,101207.00
2023-01-03T06:04:24.331Z,101207.00
2023-01-03T06:06:52.140Z,101206.00
2023-01-03T06:09:19.637Z,101215.00
2023-01-03T06:11:47.070Z,101212.00
2023-01-03T06:14:14.735Z,101219.00
2023-01-03T06:17:00.738Z,101216.00
2023-01-03T06:19:28.247Z,101219.00
2023-01-03T06:21:55.745Z,101216.00
2023-01-03T06:24:23.721Z,101216.00
2023-01-03T06:26:51.314Z,101221.00
2023-01-03T06:29:19.062Z,101219.00
2023-01-03T06:31:46.687Z,101214.00
2023-01-03T06:34:15.975Z,101217.00
2023-01-03T06:36:43.572Z,101217.00
2023-01-03T06:39:10.982Z,101224.00
2023-01-03T06:41:38.695Z,101228.00
2023-01-03T06:44:06.251Z,101224.00
2023-01-03T06:46:52.468Z,101231.00
2023-01-03T06:49:38.486Z,101239.00
2023-01-03T06:52:31.769Z,101246.00
2023-01-03T06:54:59.422Z,101242.00
2023-01-03T06:57:27.572Z,101238.00
2023-01-03T06:59:56.051Z,101246.00
2023-01-03T07:02:24.309Z,101242.00
2023-01-03T07:04:52.325Z,101244.00
2023-01-03T07:07:19.913Z,101247.00
2023-01-03T07:09:47.435Z,101247.00
2023-01-03T07:12:37.609Z,101259.00
2023-01-03T07:15:06.185Z,101255.00
2023-01-03T07:17:34.234Z,101257.00
2023-01-03T07:20:01.753Z,101259.00
2023-01-03T07:22:29.300Z,101259.00
2023-01-03T07:24:56.973Z,101262.00
2023-01-03T07:27:24.599Z,101270.00
2023-01-03T07:29:52.083Z,101275.00
2023-01-03T07:32:19.414Z,101274.00
2023-01-03T07:34:46.840Z,101282.00
2023-01-03T07:37:14.570Z,101286.00
2023-01-03T07:39:41.998Z,101293.00
2023-01-03T07:42:28.164Z,101296.00
2023-01-03T07:44:55.975Z,101304.00
2023-01-03T07:47:23.599Z,101301.00
2023-01-03T07:49:50.970Z,101303.00
2023-01-03T07:52:18.467Z,101313.00
2023-01-03T07:54:45.887Z,101316.00
2023-01-03T07:57:15.003Z,101314.00
2023-01-03T07:59:42.353Z,101322.00
2023-01-03T08:02:09.861Z,101321.00
2023-01-03T08:04:37.456Z,101321.00
2023-01-03T08:07:05.099Z,101324.00
2023-01-03T08:09:51.514Z,101330.00
2023-01-03T08:12:37.640Z,101334.00
2023-01-03T08:15:06.222Z,101331.00
2023-01-03T08:17:33.549Z,101334.00
2023-01-03T08:20:01.003Z,101324.00
2023-01-03T08:22:29.680Z,101337.00
2023-01-03T08:24:57.243Z,101344.00
2023-01-03T08:27:24.740Z,101334.00
2023-01-03T08:29:52.203Z,101327.00
2023-01-03T08:32:20.125Z,101330.00
2023-01-03T08:34:48.712Z,101333.00
2023-01-03T08:37:17.942Z,101337.00
2023-01-03T08:39:55.878Z,101339.00
2023-01-03T08:42:24.182Z,101334.00
2023-01-03T08:44:58.911Z,101340.00
2023-01-03T08:47:26.913Z,101345.00
2023-01-03T08:49:56.421Z,101343.00
2023-01-03T08:52:23.839Z,101357.00
2023-01-03T08:54:51.367Z,101346.00
2023-01-03T08:57:19.061Z,101347.00
2023-01-03T08:59:46.477Z,101355.00
2023-01-03T09:02:14.166Z,101359.00
2023-01-03T09:04:41.823Z,101368.00
2023-01-03T09:07:10.249Z,101362.00
2023-01-03T09:09:38.040Z,101358.00
2023-01-03T09:12:05.601Z,101360.00
2023-01-03T09:14:33.028Z,101366.00
2023-01-03T09:17:00.528Z,101371.00
2023-01-03T09:19:30.658Z,101374.00
2023-01-03T09:21:58.330Z,101376.00
2023-01-03T09:24:25.728Z,101384.00
2023-01-03T09:26:54.908Z,101386.00
2023-01-03T09:29:23.159Z,101381.00
2023-01-03T09:31:51.455Z,101380.00
2023-01-03T09:34:19.741Z,101377.00
2023-01-03T09:36:49.456Z,101375.00
2023-01-03T09:39:17.099Z,101378.00
2023-01-03T09:41:45.173Z,101368.00
2023-01-03T09:44:13.190Z,101380.00
2023-01-03T09:46:40.774Z,101377.00
2023-01-03T09:49:08.421Z,101383.00
2023-01-03T09:52:00.417Z,101386.00
2023-01-03T09:54:56.311Z,101395.00
2023-01-03T09:57:53.910Z,101385.00
2023-01-03T10:00:58.086Z,101396.00
2023-01-03T10:03:50.862Z,101392.00
2023-01-03T10:06:50.801Z,101392.00
2023-01-03T10:09:59.913Z,101389.00
2023-01-03T10:13:39.539Z,101390.00
2023-01-03T10:16:48.167Z,101386.00
2023-01-03T10:19:44.153Z,101389.00
2023-01-03T10:22:30.768Z,101387.00
2023-01-03T10:25:23.735Z,101389.00
2023-01-03T10:28:27.011Z,101387.00
2023-01-03T10:31:18.340Z,101382.00
2023-01-03T10:33:51.126Z,101379.00
2023-01-03T10:36:21.409Z,101383.00
2023-01-03T10:38:53.249Z,101391.00
2023-01-03T10:41:42.128Z,101379.00
2023-01-03T10:44:32.471Z,101378.00
2023-01-03T10:47:11.354Z,101373.00
2023-01-03T10:49:44.953Z,101375.00
2023-01-03T10:52:19.520Z,101374.00
2023-01-03T10:55:13.876Z,101383.00
2023-01-03T10:57:52.468Z,101383.00
2023-01-03T11:00:26.727Z,101371.00
2023-01-03T11:02:57.394Z,101373.00
2023-01-03T11:05:27.468Z,101365.00
2023-01-03T11:08:05.036Z,101366.00
2023-01-03T11:10:40.601Z,101352.00
2023-01-03T11:13:36.850Z,101359.00
2023-01-03T11:16:19.692Z,101356.00
2023-01-03T11:19:05.782Z,101348.00
2023-01-03T11:21:45.664Z,101342.00
2023-01-03T11:24:29.562Z,101339.00
2023-01-03T11:28:00.731Z,101344.00
2023-01-03T11:31:18.917Z,101336.00
2023-01-03T11:33:55.265Z,101337.00
2023-01-03T11:36:50.113Z,101336.00
2023-01-03T11:39:36.415Z,101329.00
2023-01-03T11:42:34.827Z,101332.00
2023-01-03T11:45:30.596Z,101335.00
2023-01-03T11:48:30.731Z,101332.00
2023-01-03T11:51:43.960Z,101327.00
2023-01-03T11:55:11.771Z,101328.00
2023-01-03T11:58:06.105Z,101325.00
2023-01-03T12:00:46.708Z,101324.00
2023-01-03T12:03:34.503Z,101317.00
2023-01-03T12:07:21.606Z,101323.00
2023-01-03T12:10:28.980Z,101321.00
2023-01-03T12:13:11.700Z,101313.00
2023-01-03T12:16:04.216Z,101306.00
2023-01-03T12:18:57.102Z,101307.00
2023-01-03T12:21:44.640Z,101306.00
2023-01-03T12:24:18.704Z,101311.00
2023-01-03T12:27:15.437Z,101307.00
2023-01-03T12:30:07.210Z,101302.00
2023-01-03T12:32:56.510Z,101299.00
2023-01-03T12:36:27.501Z,101299.00
2023-01-03T12:39:24.853Z,101294.00
2023-01-03T12:42:50.990Z,101302.00
2023-01-03T12:45:53.347Z,101285.00
2023-01-03T12:49:02.903Z,101285.00
2023-01-03T12:51:30.752Z,101287.00
2023-01-03T12:54:32.895Z,101277.00
2023-01-03T12:57:28.650Z,101284.00
2023-01-03T13:00:36.009Z,101279.00
2023-01-03T13:03:41.254Z,101270.00
2023-01-03T13:06:27.700Z,101267.00
2023-01-03T13:09:32.390Z,101266.00
2023-01-03T13:12:22.643Z,101268.00
2023-01-03T13:15:11.771Z,101266.00
2023-01-03T13:17:49.038Z,101264.00
2023-01-03T13:20:36.773Z,101262.00
2023-01-03T13:23:29.224Z,101253.00
2023-01-03T13:26:06.126Z,101263.00
2023-01-03T13:28:38.867Z,101254.00
2023-01-03T13:31:18.336Z,101248.00
2023-01-03T13:34:20.396Z,101255.00
2023-01-03T13:37:18.059Z,101247.00
2023-01-03T13:39:50.600Z,101251.00
2023-01-03T13:42:24.216Z,101240.00
2023-01-03T13:44:51.964Z,101243.00
2023-01-03T13:47:55.967Z,101245.00
2023-01-03T13:50:36.404Z,101243.00
2023-01-03T13:53:12.665Z,101249.00
2023-01-03T13:55:57.088Z,101246.00
2023-01-03T13:58:44.739Z,101247.00
2023-01-03T14:01:55.911Z,101242.00
2023-01-03T14:04:58.843Z,101242.00
2023-01-03T14:07:29.362Z,101246.00
2023-01-03T14:10:33.485Z,101235.00
2023-01-03T14:13:46.140Z,101241.00
2023-01-03T14:16:19.730Z,101245.00
2023-01-03T14:19:30.823Z,101236.00
2023-01-03T14:22:28.556Z,101245.00
2023-01-03T14:24:58.061Z,101244.00
2023-01-03T14:27:40.638Z,101239.00
2023-01-03T14:30:24.433Z,101245.00
2023-01-03T14:32:52.120Z,101251.00
2023-01-03T14:35:40.069Z,101252.00
2023-01-03T14:38:29.739Z,101248.00
2023-01-03T14:40:58.296Z,101254.00
2023-01-03T14:43:31.423Z,101252.00
2023-01-03T14:46:11.896Z,101267.00
2023-01-03T14:48:39.874Z,101272.00
2023-01-03T14:51:13.249Z,101265.00
2023-01-03T14:53:42.454Z,101270.00
2023-01-03T14:56:11.272Z,101277.00
2023-01-03T14:58:47.312Z,101275.00
2023-01-03T15:01:15.808Z,101279.00
2023-01-03T15:03:46.954Z,101277.00
2023-01-03T15:06:25.706Z,101276.00
2023-01-03T15:09:00.122Z,101276.00
2023-01-03T15:11:56.498Z,101274.00
2023-01-03T15:14:31.490Z,101277.00
2023-01-03T15:17:08.163Z,101277.00
2023-01-03T15:19:40.162Z,101281.00
2023-01-03T15:22:22.547Z,101279.00
2023-01-03T15:25:00.326Z,101281.00
2023-01-03T15:27:44.082Z,101275.00
2023-01-03T15:30:23.914Z,101282.00
2023-01-03T15:32:56.303Z,101289.00
2023-01-03T15:35:37.518Z,101287.00
2023-01-03T15:38:32.004Z,101290.00
2023-01-03T15:41:01.413Z,101292.00
2023-01-03T15:43:39.492Z,101295.00
2023-01-03T15:46:15.800Z,101299.00
2023-01-03T15:48:55.317Z,101301.00
2023-01-03T15:51:23.009Z,101297.00
2023-01-03T15:53:50.987Z,101299.00
2023-01-03T15:56:24.859Z,101292.00
2023-01-03T15:58:56.383Z,101299.00
2023-01-03T16:01:25.092Z,101303.00
2023-01-03T16:03:54.570Z,101301.00
2023-01-03T16:06:22.328Z,101298.00
2023-01-03T16:08:49.861Z,101299.00
2023-01-03T16:11:31.439Z,101299.00
2023-01-03T16:14:05.460Z,101306.00
2023-01-03T16:16:38.673Z,101309.00
2023-01-03T16:19:08.110Z,101309.00
2023-01-03T16:21:36.139Z,101295.00
2023-01-03T16:24:05.103Z,101310.00
2023-01-03T16:26:32.604Z,101302.00
2023-01-03T16:29:00.321Z,101304.00
2023-01-03T16:31:33.072Z,101306.00
2023-01-03T16:34:06.461Z,101308.00
2023-01-03T16:36:40.080Z,101309.00
2023-01-03T16:39:18.680Z,101304.00
2023-01-03T16:42:08.207Z,101294.00
2023-01-03T16:44:38.143Z,101293.00
2023-01-03T16:47:13.757Z,101297.00
2023-01-03T16:49:42.882Z,101289.00
2023-01-03T16:52:16.506Z,101288.00
2023-01-03T16:54:46.807Z,101290.00
2023-01-03T16:57:22.534Z,101291.00
2023-01-03T16:59:51.295Z,101288.00
2023-01-03T17:02:22.046Z,101290.00
2023-01-03T17:04:53.155Z,101288.00
2023-01-03T17:07:24.371Z,101283.00
2023-01-03T17:09:52.540Z,101285.00
2023-01-03T17:12:23.370Z,101288.00
2023-01-03T17:14:52.247Z,101278.00
2023-01-03T17:17:23.301Z,101269.00
2023-01-03T17:20:06.802Z,101277.00
2023-01-03T17:22:34.598Z,101275.00
2023-01-03T17:25:02.338Z,101270.00
2023-01-03T17:27:33.059Z,101266.00
2023-01-03T17:30:05.542Z,101267.00
2023-01-03T17:32:34.257Z,101276.00
2023-01-03T17:35:03.651Z,101271.00
2023-01-03T17:37:51.453Z,101269.00
2023-01-03T17:40:33.159Z,101271.00
2023-01-03T17:43:02.129Z,101270.00
2023-01-03T17:45:48.310Z,101269.00
2023-01-03T17:48:34.250Z,101266.00
2023-01-03T17:51:02.279Z,101271.00
2023-01-03T17:53:30.294Z,101260.00
2023-01-03T17:55:57.917Z,101248.00
2023-01-03T17:58:39.783Z,101249.00
2023-01-03T18:01:08.825Z,101251.00
2023-01-03T18:03:38.517Z,101261.00
2023-01-03T18:06:21.921Z,101253.00
2023-01-03T18:08:50.896Z,101259.00
2023-01-03T18:11:21.694Z,101252.00
2023-01-03T18:13:50.114Z,101263.00
2023-01-03T18:16:22.852Z,101262.00
2023-01-03T18:18:51.103Z,101257.00
2023-01-03T18:21:30.164Z,101264.00
2023-01-03T18:24:20.063Z,101268.00
2023-01-03T18:26:51.302Z,101275.00
2023-01-03T18:29:19.365Z,101274.00
2023-01-03T18:31:48.089Z,101270.00
2023-01-03T18:34:16.160Z,101261.00
2023-01-03T18:36:48.183Z,101251.00
2023-01-03T18:39:29.314Z,101254.00
2023-01-03T18:42:16.981Z,101257.00
2023-01-03T18:44:44.935Z,101257.00
2023-01-03T18:47:17.342Z,101258.00
2023-01-03T18:49:45.591Z,101256.00
2023-01-03T18:52:39.117Z,101251.00
2023-01-03T18:55:17.797Z,101246.00
2023-01-03T18:57:46.858Z,101248.00
2023-01-03T19:00:24.900Z,101244.00
2023-01-03T19:02:54.386Z,101250.00
2023-01-03T19:05:22.345Z,101255.00
2023-01-03T19:07:53.013Z,101245.00
2023-01-03T19:10:27.467Z,101248.00
2023-01-03T19:12:57.319Z,101245.00
2023-01-03T19:15:29.439Z,101243.00
2023-01-03T19:17:57.738Z,101239.00
2023-01-03T19:20:27.275Z,101242.00
2023-01-03T19:22:55.717Z,101240.00
2023-01-03T19:25:28.876Z,101236.00
2023-01-03T19:28:00.157Z,101239.00
2023-01-03T19:30:44.533Z,101240.00
2023-01-03T19:33:14.865Z,101235.00
2023-01-03T19:35:43.780Z,101244.00
2023-01-03T19:38:11.516Z,101242.00
2023-01-03T19:40:42.692Z,101237.00
2023-01-03T19:43:22.022Z,101242.00
2023-01-03T19:45:49.931Z,101230.00
2023-01-03T19:48:24.346Z,101234.00
2023-01-03T19:50:56.796Z,101230.00
2023-01-03T19:53:24.121Z,101220.00
2023-01-03T19:55:55.431Z,101218.00
2023-01-03T19:58:29.602Z,101219.00
2023-01-03T20:00:57.633Z,101214.00
2023-01-03T20:03:36.282Z,101215.00
2023-01-03T20:06:03.925Z,101211.00
2023-01-03T20:08:31.647Z,101202.00
2023-01-03T20:11:02.454Z,101202.00
2023-01-03T20:13:29.916Z,101198.00
2023-01-03T20:16:00.611Z,101192.00
2023-01-03T20:18:30.840Z,101187.00
2023-01-03T20:21:23.493Z,101176.00
2023-01-03T20:23:56.272Z,101167.00
2023-01-03T20:26:30.056Z,101177.00
2023-01-03T20:29:01.852Z,101184.00
2023-01-03T20:31:30.474Z,101171.00
2023-01-03T20:33:59.466Z,101168.00
2023-01-03T20:36:41.146Z,101176.00
2023-01-03T20:39:31.040Z,101185.00
2023-01-03T20:42:03.993Z,101182.00
2023-01-03T20:44:31.624Z,101186.00
2023-01-03T20:46:59.559Z,101178.00
2023-01-03T20:49:29.211Z,101179.00
2023-01-03T20:51:56.846Z,101174.00
2023-01-03T20:54:24.705Z,101180.00
2023-01-03T20:56:52.424Z,101175.00
2023-01-03T20:59:21.572Z,101174.00
2023-01-03T21:01:49.664Z,101168.00
2023-01-03T21:04:17.810Z,101165.00
2023-01-03T21:06:46.911Z,101163.00
2023-01-03T21:09:14.499Z,101150.00
2023-01-03T21:11:42.095Z,101161.00
2023-01-03T21:14:10.647Z,101150.00
2023-01-03T21:16:44.711Z,101156.00
2023-01-03T21:19:22.162Z,101152.00
2023-01-03T21:21:53.060Z,101156.00
2023-01-03T21:24:24.328Z,101151.00
2023-01-03T21:26:51.891Z,101146.00
2023-01-03T21:29:19.523Z,101152.00
2023-01-03T21:31:47.312Z,101155.00
2023-01-03T21:34:21.285Z,101156.00
2023-01-03T21:36:50.082Z,101151.00
2023-01-03T21:39:18.130Z,101140.00
2023-01-03T21:42:04.464Z,101140.00
2023-01-03T21:44:32.302Z,101128.00
2023-01-03T21:46:59.928Z,101127.00
2023-01-03T21:49:27.484Z,101129.00
2023-01-03T21:51:54.929Z,101124.00
2023-01-03T21:54:22.454Z,101115.00
2023-01-03T21:56:49.871Z,101119.00
2023-01-03T21:59:17.949Z,101119.00
2023-01-03T22:02:25.517Z,101116.00
2023-01-03T22:04:53.421Z,101118.00
2023-01-03T22:07:20.902Z,101110.00
2023-01-03T22:10:06.869Z,101107.00
2023-01-03T22:12:34.461Z,101104.00
2023-01-03T22:15:02.410Z,101092.00
2023-01-03T22:17:29.897Z,101101.00
2023-01-03T22:19:57.697Z,101095.00
2023-01-03T22:22:25.285Z,101093.00
2023-01-03T22:24:52.805Z,101088.00
2023-01-03T22:27:20.670Z,101090.00
2023-01-03T22:29:48.141Z,101092.00
2023-01-03T22:32:15.976Z,101091.00
2023-01-03T22:34:43.587Z,101087.00
2023-01-03T22:37:11.183Z,101080.00
2023-01-03T22:39:38.589Z,101076.00
2023-01-03T22:42:05.982Z,101073.00
2023-01-03T22:44:33.745Z,101082.00
2023-01-03T22:47:01.299Z,101070.00
2023-01-03T22:49:28.703Z,101069.00
2023-01-03T22:51:56.055Z,101074.00
2023-01-03T22:54:23.488Z,101057.00
2023-01-03T22:56:51.334Z,101065.00
2023-01-03T22:59:18.949Z,101065.00
2023-01-03T23:01:46.873Z,101059.00
2023-01-03T23:04:14.689Z,101043.00
2023-01-03T23:06:42.210Z,101049.00
2023-01-03T23:09:12.570Z,101047.00
2023-01-03T23:11:58.983Z,101039.00
2023-01-03T23:14:27.986Z,101034.00
2023-01-03T23:16:56.128Z,101030.00
2023-01-03T23:19:27.706Z,101022.00
2023-01-03T23:21:58.344Z,101026.00
2023-01-03T23:24:25.967Z,101025.00
2023-01-03T23:26:54.054Z,101012.00
2023-01-03T23:29:22.026Z,101006.00
2023-01-03T23:31:49.637Z,101002.00
2023-01-03T23:34:17.253Z,100991.00
2023-01-03T23:36:45.192Z,100979.00
2023-01-03T23:39:16.171Z,100974.00
2023-01-03T23:41:44.419Z,100980.00
2023-01-03T23:44:12.399Z,100986.00
2023-01-03T23:46:40.600Z,100976.00
2023-01-03T23:49:09.729Z,100982.00
2023-01-03T23:51:37.778Z,100981.00
2023-01-03T23:54:05.781Z,100985.00
2023-01-03T23:56:33.541Z,100985.00
2023-01-03T23:59:01.190Z,100974.00
